Time;durP1;ratioP1;P1;durP2;ratioP2;P2;SDS_P1;SDS_P2;PMS_P1;PMS_P2;Temp;Humidity;BMP_temperature;BMP_pressure;BME280_temperature;BME280_humidity;BME280_pressure;Samples;Min_cycle;Max_cycle;Signal;HPM_P1;HPM_P2
2022/11/17 00:00:23;;;;;;;4.40;3.40;;;10.50;47.90;;;;;;5033975;28;20253;-45
2022/11/17 00:02:49;;;;;;;3.13;2.83;;;10.40;48.10;;;;;;5033882;28;20840;-45
2022/11/17 00:05:15;;;;;;;4.27;3.53;;;10.40;48.50;;;;;;5033867;28;20569;-45
2022/11/17 00:07:44;;;;;;;6.40;3.50;;;10.40;48.60;;;;;;5032744;28;20837;-45
2022/11/17 00:10:10;;;;;;;4.10;3.70;;;10.30;48.50;;;;;;5034028;28;20440;-45
2022/11/17 00:15:20;;;;;;;5.22;3.42;;;10.20;48.50;;;;;;5033685;28;20200;-45
2022/11/17 00:17:47;;;;;;;3.80;3.50;;;10.20;48.70;;;;;;5032395;28;20233;-44
2022/11/17 00:22:58;;;;;;;4.07;2.90;;;10.20;48.60;;;;;;5033673;28;20167;-45
2022/11/17 00:25:24;;;;;;;5.27;3.43;;;10.10;48.70;;;;;;5033110;28;20170;-44
2022/11/17 00:27:49;;;;;;;3.93;3.00;;;10.10;48.60;;;;;;5032419;28;20177;-45
2022/11/17 00:34:03;;;;;;;4.60;3.33;;;10.00;48.70;;;;;;5033113;28;20437;-44
2022/11/17 00:35:53;;;;;;;3.85;3.33;;;10.00;48.20;;;;;;5034858;28;20193;-45
2022/11/17 00:38:19;;;;;;;4.20;3.15;;;10.00;48.60;;;;;;5037928;28;20173;-44
2022/11/17 00:40:45;;;;;;;4.13;3.40;;;10.00;48.70;;;;;;5037413;28;20182;-45
2022/11/17 00:43:11;;;;;;;3.30;2.90;;;10.00;48.60;;;;;;5035862;28;20539;-45
2022/11/17 00:45:37;;;;;;;3.85;2.83;;;10.00;48.50;;;;;;5033848;28;20661;-44
2022/11/17 00:48:03;;;;;;;3.90;2.60;;;9.90;48.60;;;;;;5034424;28;20192;-45
2022/11/17 00:50:28;;;;;;;3.70;2.63;;;9.90;48.60;;;;;;5034258;28;20174;-45
2022/11/17 00:52:54;;;;;;;3.40;2.50;;;10.00;48.60;;;;;;5034379;28;21001;-45
2022/11/17 00:55:20;;;;;;;3.93;2.63;;;10.00;49.40;;;;;;5034135;28;20174;-45
2022/11/17 00:57:46;;;;;;;3.70;2.10;;;10.00;48.70;;;;;;5033476;28;20247;-44
2022/11/17 01:00:12;;;;;;;3.10;2.37;;;10.00;48.60;;;;;;5034095;28;20181;-44
2022/11/17 01:02:37;;;;;;;3.03;2.53;;;10.00;48.40;;;;;;5034688;28;20269;-44
2022/11/17 01:05:03;;;;;;;3.60;2.03;;;10.00;48.50;;;;;;5034621;28;20213;-45
2022/11/17 01:07:29;;;;;;;3.80;1.98;;;10.00;48.40;;;;;;5033869;28;20192;-45
2022/11/17 01:09:55;;;;;;;3.47;2.30;;;9.90;48.30;;;;;;5034435;28;20189;-45
2022/11/17 01:12:20;;;;;;;2.80;2.20;;;10.00;48.40;;;;;;5033365;28;20201;-45
2022/11/17 01:14:46;;;;;;;2.63;2.13;;;9.80;48.10;;;;;;5032226;28;20250;-44
2022/11/17 01:17:12;;;;;;;2.80;1.97;;;9.80;48.20;;;;;;5031506;28;20221;-44
2022/11/17 01:19:37;;;;;;;3.20;2.50;;;9.70;48.60;;;;;;5030958;28;20166;-43
2022/11/17 01:22:03;;;;;;;3.80;1.80;;;9.70;49.00;;;;;;5032129;28;20193;-43
2022/11/17 01:24:29;;;;;;;2.83;2.20;;;9.70;49.90;;;;;;5032106;28;20181;-44
2022/11/17 01:26:55;;;;;;;2.30;1.80;;;9.80;49.10;;;;;;5031493;28;20166;-44
2022/11/17 01:29:20;;;;;;;3.47;2.17;;;9.90;49.30;;;;;;5033927;28;20223;-43
2022/11/17 01:31:49;;;;;;;2.53;2.27;;;10.00;49.10;;;;;;5036245;28;20231;-46
2022/11/17 01:34:15;;;;;;;3.53;1.75;;;10.00;48.60;;;;;;5036301;28;20182;-43
2022/11/17 01:39:29;;;;;;;3.30;2.05;;;10.00;48.50;;;;;;5036288;28;20406;-44
2022/11/17 01:41:55;;;;;;;2.50;1.73;;;10.00;48.60;;;;;;5036139;28;20208;-46
2022/11/17 01:44:49;;;;;;;2.40;1.90;;;9.90;48.20;;;;;;5036074;28;20174;-42
2022/11/17 01:47:21;;;;;;;2.15;1.65;;;9.90;48.20;;;;;;5035306;28;20182;-45
2022/11/17 01:49:50;;;;;;;3.13;2.17;;;9.80;48.20;;;;;;5036004;28;20216;-44
2022/11/17 01:52:16;;;;;;;3.08;1.50;;;9.70;48.30;;;;;;5035653;28;20204;-43
2022/11/17 01:54:45;;;;;;;1.90;1.48;;;9.60;48.40;;;;;;5035723;28;20697;-44
2022/11/17 01:57:18;;;;;;;4.05;1.90;;;9.60;48.30;;;;;;5035324;28;20303;-43
2022/11/17 02:00:11;;;;;;;2.15;1.23;;;9.60;48.40;;;;;;5036087;28;20548;-44
2022/11/17 02:02:39;;;;;;;2.40;1.20;;;9.60;48.40;;;;;;5033846;28;20198;-44
2022/11/17 02:05:12;;;;;;;2.25;1.40;;;9.60;48.60;;;;;;5035570;28;20178;-45
2022/11/17 02:07:41;;;;;;;2.47;1.27;;;9.50;48.20;;;;;;5035224;28;20174;-44
2022/11/17 02:10:07;;;;;;;4.47;1.70;;;9.40;48.40;;;;;;5035691;28;20209;-44
2022/11/17 02:12:35;;;;;;;3.05;2.10;;;9.40;48.60;;;;;;5035327;28;20202;-42
2022/11/17 02:15:01;;;;;;;1.30;1.17;;;9.40;48.90;;;;;;5035779;28;20178;-42
2022/11/17 02:17:45;;;;;;;1.50;1.00;;;9.40;48.50;;;;;;5034633;28;20297;-45
2022/11/17 02:20:19;;;;;;;2.17;1.33;;;9.40;48.50;;;;;;5035317;28;20163;-43
2022/11/17 02:22:51;;;;;;;3.67;1.80;;;9.30;48.70;;;;;;5035244;28;20209;-43
2022/11/17 02:25:37;;;;;;;2.33;1.50;;;9.20;48.90;;;;;;5035532;28;20212;-44
2022/11/17 02:28:29;;;;;;;2.20;1.55;;;9.30;48.80;;;;;;5028016;28;20185;-42
2022/11/17 02:31:25;;;;;;;2.75;1.50;;;9.30;48.90;;;;;;5035145;28;20238;-44
2022/11/17 02:34:05;;;;;;;1.80;1.58;;;9.30;48.90;;;;;;5035038;28;20714;-44
2022/11/17 02:36:56;;;;;;;8.48;2.00;;;9.30;49.10;;;;;;5034697;28;20244;-44
2022/11/17 02:40:08;;;;;;;2.40;1.83;;;9.40;48.70;;;;;;5035302;28;20174;-44
2022/11/17 02:45:50;;;;;;;2.38;1.63;;;9.30;48.50;;;;;;5035018;28;20188;-44
2022/11/17 02:48:26;;;;;;;2.65;2.03;;;9.30;48.50;;;;;;5034816;28;20253;-45
2022/11/17 02:50:53;;;;;;;2.28;1.90;;;9.30;48.70;;;;;;5034816;28;20193;-44
2022/11/17 02:53:21;;;;;;;2.60;2.20;;;9.30;48.70;;;;;;5034953;28;20220;-43
2022/11/17 02:55:49;;;;;;;2.42;2.08;;;9.30;48.60;;;;;;5032747;28;20547;-43
2022/11/17 02:58:15;;;;;;;1.50;1.25;;;9.40;48.70;;;;;;5035132;28;20212;-45
2022/11/17 03:01:05;;;;;;;2.73;1.57;;;9.40;48.40;;;;;;5034467;28;20181;-44
2022/11/17 03:03:30;;;;;;;2.15;1.80;;;9.40;48.30;;;;;;5034775;28;20260;-45
2022/11/17 03:06:30;;;;;;;2.27;1.60;;;9.40;48.40;;;;;;5034182;28;20221;-42
2022/11/17 03:09:08;;;;;;;3.15;2.15;;;9.40;48.40;;;;;;5033928;28;20182;-44
2022/11/17 03:11:55;;;;;;;2.80;2.35;;;9.40;48.40;;;;;;5034157;28;20248;-45
2022/11/17 03:14:31;;;;;;;2.20;1.63;;;9.40;48.40;;;;;;5034530;28;20178;-44
2022/11/17 03:17:20;;;;;;;3.25;2.05;;;9.50;48.40;;;;;;5033842;28;20284;-46
2022/11/17 03:20:00;;;;;;;2.40;1.70;;;9.50;48.40;;;;;;5034581;28;20200;-44
2022/11/17 03:22:35;;;;;;;2.67;2.00;;;9.40;48.30;;;;;;5034172;28;20225;-44
2022/11/17 03:25:04;;;;;;;2.30;2.00;;;9.30;48.50;;;;;;5034088;28;20676;-46
2022/11/17 03:27:41;;;;;;;3.22;1.83;;;9.30;48.70;;;;;;5033557;28;20176;-43
2022/11/17 03:30:08;;;;;;;2.22;1.42;;;9.30;48.80;;;;;;5034036;28;20181;-44
2022/11/17 03:32:41;;;;;;;2.70;2.40;;;9.20;48.70;;;;;;5033771;28;20228;-43
2022/11/17 03:35:11;;;;;;;4.07;2.50;;;9.20;48.80;;;;;;5033936;28;20185;-43
2022/11/17 03:37:42;;;;;;;2.85;2.00;;;9.20;48.90;;;;;;5033211;28;20708;-43
2022/11/17 03:40:11;;;;;;;3.22;2.10;;;9.20;49.00;;;;;;5033933;28;20170;-45
2022/11/17 03:42:42;;;;;;;4.80;1.98;;;9.30;49.10;;;;;;5033899;28;20266;-45
2022/11/17 03:45:17;;;;;;;2.88;2.42;;;9.30;49.20;;;;;;5033782;28;20174;-45
2022/11/17 03:47:44;;;;;;;3.08;2.25;;;9.30;49.10;;;;;;5033203;28;20235;-44
2022/11/17 03:50:17;;;;;;;3.17;1.95;;;9.30;49.20;;;;;;5033980;28;20189;-44
2022/11/17 03:52:44;;;;;;;3.42;3.13;;;9.30;49.00;;;;;;5032613;28;20198;-44
2022/11/17 03:55:10;;;;;;;3.00;2.55;;;9.30;48.80;;;;;;5033442;28;20658;-46
2022/11/17 03:57:58;;;;;;;3.17;1.90;;;9.30;48.70;;;;;;5032949;28;20201;-45
2022/11/17 04:00:24;;;;;;;3.88;2.45;;;9.30;48.80;;;;;;5033671;28;20171;-44
2022/11/17 04:02:55;;;;;;;2.90;2.10;;;9.20;48.90;;;;;;5033407;28;20253;-44
2022/11/17 04:05:21;;;;;;;5.80;2.85;;;9.20;48.70;;;;;;5033481;28;20170;-43
2022/11/17 04:07:47;;;;;;;2.35;1.60;;;9.20;48.90;;;;;;5032705;28;20207;-44
2022/11/17 04:10:22;;;;;;;2.75;2.30;;;9.30;49.20;;;;;;5033225;28;20649;-42
2022/11/17 04:18:03;;;;;;;3.08;2.20;;;9.20;49.00;;;;;;5033097;28;20256;-43
2022/11/17 04:20:37;;;;;;;4.60;3.00;;;9.20;49.10;;;;;;5033320;28;20219;-46
2022/11/17 04:23:10;;;;;;;4.25;2.70;;;9.20;49.10;;;;;;5032984;28;20150;-43
2022/11/17 04:28:36;;;;;;;2.55;2.35;;;9.20;49.00;;;;;;5033061;28;20164;-43
2022/11/17 04:31:11;;;;;;;3.95;2.72;;;9.20;49.30;;;;;;5032944;28;20284;-45
2022/11/17 04:33:42;;;;;;;3.05;2.45;;;9.20;49.20;;;;;;5032963;28;20231;-45
2022/11/17 04:36:09;;;;;;;5.32;2.65;;;9.20;49.10;;;;;;5032243;28;20185;-42
2022/11/17 04:38:35;;;;;;;3.75;2.40;;;9.20;49.00;;;;;;5032910;28;20194;-43
2022/11/17 04:43:51;;;;;;;2.72;2.20;;;9.10;49.10;;;;;;5032984;28;20439;-43
2022/11/17 04:46:17;;;;;;;3.00;2.47;;;9.10;48.90;;;;;;5032158;28;20170;-45
2022/11/17 04:48:44;;;;;;;3.97;2.45;;;9.10;49.00;;;;;;5032523;28;20515;-43
2022/11/17 04:51:10;;;;;;;4.95;2.78;;;9.10;48.90;;;;;;5032493;28;20687;-42
2022/11/17 04:53:36;;;;;;;3.08;2.22;;;9.10;49.00;;;;;;5032496;28;20191;-43
2022/11/17 04:56:03;;;;;;;3.30;2.90;;;9.10;49.30;;;;;;5032047;28;20235;-43
2022/11/17 04:58:29;;;;;;;2.70;1.95;;;9.10;48.90;;;;;;5032648;28;20181;-46
2022/11/17 05:00:55;;;;;;;2.60;1.93;;;9.10;48.90;;;;;;5032349;28;20197;-44
2022/11/17 05:03:21;;;;;;;3.38;2.50;;;9.10;48.90;;;;;;5032344;28;20495;-43
2022/11/17 05:05:47;;;;;;;4.03;2.55;;;9.10;49.00;;;;;;5031785;28;20218;-43
2022/11/17 05:08:14;;;;;;;4.00;2.83;;;9.10;49.00;;;;;;5032213;28;20591;-46
2022/11/17 05:13:24;;;;;;;4.03;2.40;;;9.00;48.60;;;;;;5032554;28;20550;-45
2022/11/17 05:18:41;;;;;;;3.17;2.55;;;9.00;49.00;;;;;;5032064;28;20179;-44
2022/11/17 05:21:09;;;;;;;2.50;2.13;;;9.10;49.10;;;;;;5032267;28;20256;-46
2022/11/17 05:23:54;;;;;;;3.80;2.60;;;9.00;48.70;;;;;;5032108;28;20176;-44
2022/11/17 05:26:30;;;;;;;7.13;3.05;;;9.00;49.00;;;;;;5031712;28;20170;-43
2022/11/17 05:28:57;;;;;;;3.25;2.95;;;9.00;49.20;;;;;;5032214;28;20236;-43
2022/11/17 05:31:24;;;;;;;4.38;2.47;;;9.00;49.20;;;;;;5031955;28;20291;-42
2022/11/17 05:33:50;;;;;;;2.97;2.17;;;8.90;49.10;;;;;;5032074;28;20628;-44
2022/11/17 05:36:17;;;;;;;3.75;2.92;;;8.90;49.10;;;;;;5031297;28;20201;-44
2022/11/17 05:38:43;;;;;;;2.40;2.03;;;8.90;49.20;;;;;;5032054;28;20176;-43
2022/11/17 05:41:08;;;;;;;3.30;2.75;;;8.90;49.30;;;;;;5032569;28;20202;-43
2022/11/17 05:43:34;;;;;;;6.03;2.63;;;8.90;49.10;;;;;;5032871;28;20177;-44
2022/11/17 05:46:00;;;;;;;3.37;2.40;;;8.90;49.10;;;;;;5032362;28;20587;-43
2022/11/17 05:48:26;;;;;;;4.80;2.37;;;8.80;48.90;;;;;;5032568;28;20418;-42
2022/11/17 05:50:55;;;;;;;3.27;2.67;;;8.80;49.10;;;;;;5032450;28;20699;-43
2022/11/17 05:53:22;;;;;;;3.45;2.40;;;8.80;49.20;;;;;;5032396;28;20219;-44
2022/11/17 05:55:49;;;;;;;3.47;2.90;;;8.80;49.00;;;;;;5031736;28;20188;-46
2022/11/17 05:58:28;;;;;;;4.70;2.92;;;8.80;49.10;;;;;;5031837;28;20231;-44
2022/11/17 06:00:56;;;;;;;3.03;2.17;;;8.90;49.10;;;;;;5032478;28;20193;-44
2022/11/17 06:03:46;;;;;;;2.45;2.10;;;8.90;49.10;;;;;;5032484;28;20182;-45
2022/11/17 06:06:12;;;;;;;3.03;2.22;;;9.00;48.90;;;;;;5030892;28;20186;-44
2022/11/17 06:08:38;;;;;;;3.92;3.00;;;9.00;48.70;;;;;;5032755;28;20192;-45
2022/11/17 06:11:04;;;;;;;4.33;2.40;;;9.10;48.90;;;;;;5031971;28;20198;-45
2022/11/17 06:13:30;;;;;;;3.87;2.50;;;9.10;48.80;;;;;;5032112;28;20419;-45
2022/11/17 06:15:58;;;;;;;2.90;2.50;;;9.00;48.30;;;;;;5032248;28;20412;-44
2022/11/17 06:18:30;;;;;;;3.30;2.67;;;9.00;48.60;;;;;;5035444;28;20176;-47
2022/11/17 06:20:55;;;;;;;4.72;2.33;;;9.00;48.40;;;;;;5035307;28;20197;-44
2022/11/17 06:23:25;;;;;;;2.37;2.00;;;9.10;48.60;;;;;;5035432;28;20181;-44
2022/11/17 06:25:51;;;;;;;3.42;2.67;;;9.10;48.60;;;;;;5034931;28;20409;-44
2022/11/17 06:28:19;;;;;;;3.80;2.50;;;9.20;48.50;;;;;;5033993;28;20671;-44
2022/11/17 06:30:46;;;;;;;4.10;2.53;;;9.20;48.40;;;;;;5035039;28;20412;-45
2022/11/17 06:33:14;;;;;;;3.78;2.80;;;9.20;49.00;;;;;;5035768;28;20249;-44
2022/11/17 06:35:42;;;;;;;4.80;2.58;;;9.30;48.20;;;;;;5035044;28;20170;-45
2022/11/17 06:38:08;;;;;;;2.35;2.00;;;9.30;48.00;;;;;;5035350;28;20212;-42
2022/11/17 06:40:34;;;;;;;3.33;2.00;;;9.20;47.70;;;;;;5035078;28;20177;-44
2022/11/17 06:43:07;;;;;;;4.80;3.10;;;9.20;48.00;;;;;;5035149;28;20174;-44
2022/11/17 06:45:41;;;;;;;2.50;2.20;;;9.10;48.10;;;;;;5034905;28;20483;-44
2022/11/17 06:48:08;;;;;;;3.17;2.70;;;9.10;48.30;;;;;;5034902;28;20184;-45
2022/11/17 06:50:34;;;;;;;2.92;2.05;;;9.10;48.40;;;;;;5034927;28;20188;-43
2022/11/17 06:53:04;;;;;;;2.40;1.85;;;9.10;48.40;;;;;;5035026;28;20181;-45
2022/11/17 06:55:30;;;;;;;3.97;2.83;;;9.10;48.30;;;;;;5034528;28;20229;-44
2022/11/17 06:58:01;;;;;;;3.47;2.15;;;9.10;48.40;;;;;;5034310;28;20210;-44
2022/11/17 07:00:28;;;;;;;3.95;2.65;;;9.20;48.60;;;;;;5034936;28;20165;-44
2022/11/17 07:02:59;;;;;;;4.50;2.70;;;9.20;48.50;;;;;;5034347;28;20968;-43
2022/11/17 07:05:26;;;;;;;3.25;2.50;;;9.20;48.40;;;;;;5034594;28;20198;-45
2022/11/17 07:07:51;;;;;;;2.40;2.05;;;9.20;48.40;;;;;;5033878;28;20185;-43
2022/11/17 07:10:17;;;;;;;2.60;1.93;;;9.10;48.30;;;;;;5034490;28;20279;-44
2022/11/17 07:12:45;;;;;;;3.10;2.40;;;9.10;48.40;;;;;;5034299;28;20189;-44
2022/11/17 07:15:10;;;;;;;3.63;2.17;;;9.10;48.50;;;;;;5034204;28;20649;-45
2022/11/17 07:17:36;;;;;;;2.93;2.10;;;9.00;48.20;;;;;;5033641;28;20216;-43
2022/11/17 07:20:02;;;;;;;3.63;1.97;;;9.00;48.50;;;;;;5034356;28;20181;-43
2022/11/17 07:22:28;;;;;;;3.75;2.42;;;9.00;48.50;;;;;;5033980;28;20771;-45
2022/11/17 07:24:54;;;;;;;2.33;1.67;;;9.00;48.60;;;;;;5034154;28;20261;-43
2022/11/17 07:27:20;;;;;;;3.30;2.60;;;9.00;48.50;;;;;;5033212;28;20184;-45
2022/11/17 07:29:45;;;;;;;3.43;1.77;;;9.00;48.60;;;;;;5034234;28;20205;-45
2022/11/17 07:32:12;;;;;;;3.30;2.20;;;8.90;48.70;;;;;;5033711;28;20217;-45
2022/11/17 07:34:39;;;;;;;2.92;1.80;;;8.90;48.70;;;;;;5033818;28;20320;-45
2022/11/17 07:37:04;;;;;;;2.85;2.10;;;9.00;48.60;;;;;;5033245;28;20204;-44
2022/11/17 07:39:30;;;;;;;3.80;2.60;;;9.00;48.70;;;;;;5034058;28;20196;-45
2022/11/17 07:41:56;;;;;;;3.67;1.97;;;9.10;48.80;;;;;;5033988;28;21052;-45
2022/11/17 07:44:21;;;;;;;3.47;2.07;;;9.00;48.70;;;;;;5033601;28;20566;-45
2022/11/17 07:46:47;;;;;;;3.10;2.23;;;9.00;48.60;;;;;;5032935;28;20267;-45
2022/11/17 07:49:13;;;;;;;2.87;2.37;;;8.90;48.70;;;;;;5033871;28;20185;-45
2022/11/17 07:51:39;;;;;;;3.00;2.20;;;9.00;48.90;;;;;;5058949;23;20571;-42
2022/11/17 07:54:05;;;;;;;2.97;2.10;;;9.00;48.80;;;;;;5045978;28;20174;-42
2022/11/17 07:56:30;;;;;;;3.20;1.90;;;9.00;49.00;;;;;;5032921;28;20198;-42
2022/11/17 07:58:56;;;;;;;4.30;2.67;;;9.10;48.90;;;;;;5033547;28;20434;-42
2022/11/17 08:01:22;;;;;;;4.37;2.57;;;9.20;48.80;;;;;;5033347;28;20188;-42
2022/11/17 08:03:47;;;;;;;5.37;2.50;;;9.30;48.70;;;;;;5033430;28;20188;-42
2022/11/17 08:06:13;;;;;;;3.87;1.80;;;9.40;48.00;;;;;;5032906;28;20285;-42
2022/11/17 08:08:39;;;;;;;2.73;2.13;;;9.30;48.00;;;;;;5033850;28;20173;-42
2022/11/17 08:11:09;;;;;;;3.53;2.23;;;9.40;48.30;;;;;;5033211;28;20201;-42
2022/11/17 08:13:36;;;;;;;4.07;2.42;;;9.30;48.10;;;;;;5033511;28;20795;-42
2022/11/17 08:16:02;;;;;;;4.53;2.58;;;9.30;48.00;;;;;;5032547;28;20188;-42
2022/11/17 08:18:28;;;;;;;3.38;2.40;;;9.40;48.20;;;;;;5033166;28;20167;-41
2022/11/17 08:21:05;;;;;;;3.85;2.25;;;9.40;48.00;;;;;;5033123;28;20196;-41
2022/11/17 08:23:32;;;;;;;3.15;2.75;;;9.50;48.30;;;;;;5033417;28;20166;-42
2022/11/17 08:25:58;;;;;;;3.38;2.03;;;9.50;48.00;;;;;;5032491;28;20640;-42
2022/11/17 08:28:24;;;;;;;5.57;3.13;;;9.60;48.10;;;;;;5033172;28;20223;-42
2022/11/17 08:30:49;;;;;;;3.50;3.20;;;9.60;48.50;;;;;;5032802;28;20585;-42
2022/11/17 08:33:15;;;;;;;4.70;3.50;;;9.60;47.80;;;;;;5033028;28;20691;-42
2022/11/17 08:35:41;;;;;;;7.80;3.60;;;9.60;47.60;;;;;;5031130;28;20191;-41
2022/11/17 08:38:10;;;;;;;5.77;3.70;;;9.60;47.90;;;;;;5032658;28;20536;-42
2022/11/17 08:40:36;;;;;;;2.70;1.98;;;9.60;47.60;;;;;;5033021;28;20193;-41
2022/11/17 08:43:02;;;;;;;2.95;2.38;;;9.60;47.60;;;;;;5032896;28;20176;-42
2022/11/17 08:45:28;;;;;;;3.17;2.88;;;9.60;47.80;;;;;;5032427;28;20584;-42
2022/11/17 08:47:57;;;;;;;4.40;3.20;;;9.60;47.80;;;;;;5032246;28;20178;-42
2022/11/17 08:50:23;;;;;;;3.38;2.47;;;9.70;47.90;;;;;;5032428;28;20203;-42
2022/11/17 08:52:51;;;;;;;5.72;4.78;;;9.60;47.60;;;;;;5032486;28;20177;-42
2022/11/17 08:55:17;;;;;;;7.25;3.92;;;9.70;47.90;;;;;;5032454;28;20170;-42
2022/11/17 08:57:42;;;;;;;4.33;4.03;;;9.80;48.00;;;;;;5031910;28;20216;-42
2022/11/17 09:00:09;;;;;;;5.40;4.90;;;9.80;47.90;;;;;;5032306;28;20404;-42
2022/11/17 09:02:36;;;;;;;4.00;2.78;;;9.90;47.90;;;;;;5032382;28;20169;-42
2022/11/17 09:05:02;;;;;;;3.78;2.67;;;10.00;47.80;;;;;;5032273;28;20196;-42
2022/11/17 09:07:32;;;;;;;2.97;1.90;;;10.00;47.60;;;;;;5031704;28;20173;-42
2022/11/17 09:09:59;;;;;;;4.93;3.13;;;10.20;47.70;;;;;;5032272;28;20672;-42
2022/11/17 09:12:25;;;;;;;3.97;3.05;;;10.10;47.30;;;;;;5032159;28;20204;-42
2022/11/17 09:14:50;;;;;;;4.80;3.27;;;10.10;47.50;;;;;;5032231;28;20174;-42
2022/11/17 09:17:16;;;;;;;3.70;2.67;;;10.10;47.70;;;;;;5031621;28;20455;-42
2022/11/17 09:19:42;;;;;;;5.60;2.87;;;10.10;47.70;;;;;;5032106;28;20174;-42
2022/11/17 09:22:08;;;;;;;4.67;2.97;;;10.10;47.90;;;;;;5032305;28;20665;-42
2022/11/17 09:24:33;;;;;;;3.43;2.60;;;10.20;48.10;;;;;;5032178;28;20158;-42
2022/11/17 09:27:01;;;;;;;7.00;3.37;;;10.20;47.50;;;;;;5031598;28;20174;-42
2022/11/17 09:29:28;;;;;;;3.35;2.35;;;10.30;47.80;;;;;;5032014;28;20408;-42
2022/11/17 09:31:53;;;;;;;4.43;3.30;;;10.20;47.70;;;;;;5031981;28;20197;-42
2022/11/17 09:34:19;;;;;;;2.67;2.47;;;10.20;48.60;;;;;;5032156;28;20183;-42
2022/11/17 09:36:47;;;;;;;6.83;3.63;;;10.20;47.70;;;;;;5031388;28;20452;-42
2022/11/17 09:39:14;;;;;;;4.55;3.08;;;10.20;47.90;;;;;;5032022;28;20165;-42
2022/11/17 09:41:45;;;;;;;4.13;3.42;;;10.20;48.00;;;;;;5031913;28;20194;-42
2022/11/17 09:44:51;;;;;;;3.78;3.13;;;10.10;47.90;;;;;;5031910;28;20826;-42
2022/11/17 09:47:46;;;;;;;5.63;3.90;;;10.10;48.30;;;;;;4989715;28;20642;-42
2022/11/17 09:50:35;;;;;;;5.88;3.65;;;10.20;48.90;;;;;;4990142;28;20167;-42
2022/11/17 09:53:10;;;;;;;3.72;3.00;;;10.10;48.20;;;;;;4994256;28;20194;-42
2022/11/17 09:55:48;;;;;;;3.55;2.80;;;10.20;48.50;;;;;;4993614;28;20214;-43
2022/11/17 09:58:30;;;;;;;5.90;3.30;;;10.20;48.10;;;;;;4994056;28;20228;-42
2022/11/17 10:00:56;;;;;;;5.93;2.67;;;10.10;49.10;;;;;;4994033;28;20204;-42
2022/11/17 10:03:28;;;;;;;3.60;3.10;;;10.20;48.30;;;;;;4993936;28;20258;-42
2022/11/17 10:05:54;;;;;;;7.18;3.17;;;10.30;48.30;;;;;;4993449;28;20898;-42
2022/11/17 10:08:52;;;;;;;4.97;3.80;;;10.30;48.30;;;;;;4993532;28;20270;-42
2022/11/17 10:11:32;;;;;;;4.53;3.00;;;10.40;48.00;;;;;;4982774;28;20209;-42
2022/11/17 10:14:03;;;;;;;3.90;3.50;;;10.50;47.70;;;;;;4993777;28;20245;-42
2022/11/17 10:16:29;;;;;;;6.78;3.83;;;10.50;47.90;;;;;;4993129;28;20225;-42
2022/11/17 10:18:56;;;;;;;6.32;4.00;;;10.50;47.80;;;;;;4993768;28;20271;-42
2022/11/17 10:21:22;;;;;;;4.45;3.35;;;10.40;47.70;;;;;;5017479;28;20209;-42
2022/11/17 10:24:06;;;;;;;4.30;3.80;;;10.40;47.80;;;;;;5035430;28;20248;-43
2022/11/17 10:26:46;;;;;;;6.75;4.30;;;10.40;48.10;;;;;;5034696;28;20409;-42
2022/11/17 10:29:13;;;;;;;4.88;3.40;;;10.40;48.40;;;;;;5033821;28;20209;-42
2022/11/17 10:31:42;;;;;;;6.45;4.72;;;10.40;48.10;;;;;;5035086;28;20197;-42
2022/11/17 10:34:28;;;;;;;3.92;3.50;;;10.40;48.20;;;;;;5035093;28;20688;-42
2022/11/17 10:36:54;;;;;;;4.35;2.90;;;10.30;48.40;;;;;;5034379;28;20209;-42
2022/11/17 10:39:38;;;;;;;4.47;3.50;;;10.40;48.40;;;;;;5035259;28;20231;-42
2022/11/17 10:42:19;;;;;;;8.38;3.55;;;10.50;48.20;;;;;;5034979;28;20201;-42
2022/11/17 10:44:50;;;;;;;3.80;2.45;;;10.60;48.30;;;;;;5034879;28;20169;-42
2022/11/17 10:47:30;;;;;;;5.68;3.58;;;10.60;47.80;;;;;;5034725;28;20196;-42
2022/11/17 10:50:11;;;;;;;5.38;4.13;;;10.60;47.90;;;;;;5034875;28;20177;-42
2022/11/17 10:52:37;;;;;;;7.40;4.07;;;10.70;48.20;;;;;;5034828;28;20933;-42
2022/11/17 10:55:25;;;;;;;7.43;4.80;;;10.70;48.00;;;;;;5034824;28;20228;-42
2022/11/17 10:57:55;;;;;;;7.63;5.03;;;10.70;47.70;;;;;;5034142;28;20463;-42
2022/11/17 11:00:32;;;;;;;10.40;5.47;;;10.60;48.20;;;;;;5034460;28;20205;-42
2022/11/17 11:03:03;;;;;;;5.25;3.83;;;10.50;48.40;;;;;;5034234;28;20172;-43
2022/11/17 11:05:28;;;;;;;5.15;3.72;;;10.50;48.30;;;;;;5034389;28;20177;-42
2022/11/17 11:08:18;;;;;;;5.70;4.90;;;10.50;48.70;;;;;;5034053;28;20174;-42
2022/11/17 11:10:48;;;;;;;5.55;4.00;;;10.40;48.80;;;;;;5034708;28;20531;-42
2022/11/17 11:13:46;;;;;;;6.63;4.70;;;10.40;48.70;;;;;;5033176;28;20192;-42
2022/11/17 11:16:12;;;;;;;4.10;2.80;;;10.50;49.00;;;;;;5033718;28;20169;-42
2022/11/17 11:18:38;;;;;;;5.10;2.80;;;10.40;48.80;;;;;;5034227;28;20265;-42
2022/11/17 11:21:25;;;;;;;5.22;4.05;;;10.40;48.90;;;;;;5032888;28;20208;-42
2022/11/17 11:24:09;;;;;;;6.25;3.35;;;10.50;48.80;;;;;;5034287;28;20174;-42
2022/11/17 11:26:43;;;;;;;6.25;3.47;;;10.40;48.80;;;;;;5033930;28;20200;-42
2022/11/17 11:29:36;;;;;;;4.05;3.33;;;10.50;49.10;;;;;;5034121;28;20185;-42
2022/11/17 11:32:23;;;;;;;5.10;3.40;;;10.50;49.20;;;;;;5034000;28;20216;-42
2022/11/17 11:35:19;;;;;;;5.35;4.28;;;10.50;49.30;;;;;;5034486;28;20177;-42
2022/11/17 11:37:57;;;;;;;5.00;3.10;;;10.50;49.30;;;;;;5015937;28;20210;-42
2022/11/17 11:40:37;;;;;;;4.55;3.53;;;10.60;49.30;;;;;;5033824;28;20541;-43
2022/11/17 11:43:33;;;;;;;3.85;3.20;;;10.60;49.50;;;;;;5034055;28;20177;-42
2022/11/17 11:46:13;;;;;;;4.32;3.42;;;10.60;49.50;;;;;;5033293;28;20173;-42
2022/11/17 11:48:40;;;;;;;3.70;3.30;;;10.50;49.70;;;;;;5033817;28;20254;-41
2022/11/17 11:51:15;;;;;;;3.65;2.88;;;10.50;49.80;;;;;;5033699;28;20351;-42
2022/11/17 11:53:51;;;;;;;4.00;2.80;;;10.40;49.90;;;;;;5033694;28;20177;-42
2022/11/17 11:56:33;;;;;;;4.53;3.42;;;10.30;49.90;;;;;;5032979;28;20204;-42
2022/11/17 11:59:11;;;;;;;4.53;3.10;;;10.30;49.90;;;;;;5033737;28;20189;-42
2022/11/17 12:02:10;;;;;;;4.35;3.00;;;10.40;50.30;;;;;;5033511;28;20189;-42
2022/11/17 12:05:18;;;;;;;4.97;4.22;;;10.50;50.20;;;;;;5033707;28;20190;-41
2022/11/17 12:07:46;;;;;;;5.50;3.47;;;10.50;49.70;;;;;;5033002;28;20610;-42
2022/11/17 12:10:26;;;;;;;5.75;3.38;;;10.40;49.30;;;;;;5033298;28;20273;-42
2022/11/17 12:12:51;;;;;;;4.45;3.90;;;10.50;49.90;;;;;;5032827;28;20205;-41
2022/11/17 12:15:17;;;;;;;5.43;3.20;;;10.60;49.70;;;;;;5032954;28;20174;-42
2022/11/17 12:18:15;;;;;;;5.50;3.40;;;10.60;49.00;;;;;;5033124;28;20208;-42
2022/11/17 12:20:48;;;;;;;5.50;4.07;;;10.70;49.10;;;;;;5033350;28;20562;-42
2022/11/17 12:23:34;;;;;;;3.78;3.17;;;10.70;49.40;;;;;;5033297;28;20684;-42
2022/11/17 12:26:01;;;;;;;4.47;3.63;;;10.70;49.30;;;;;;5032550;28;20227;-42
2022/11/17 12:28:40;;;;;;;4.90;2.90;;;10.80;49.40;;;;;;5033284;28;20243;-42
2022/11/17 12:31:28;;;;;;;3.90;2.90;;;10.80;49.10;;;;;;5033171;28;20557;-42
2022/11/17 12:34:00;;;;;;;4.32;3.72;;;10.80;49.20;;;;;;5033261;28;20169;-42
2022/11/17 12:36:30;;;;;;;4.72;3.10;;;10.90;48.90;;;;;;5033204;28;20181;-42
2022/11/17 12:38:58;;;;;;;4.07;3.20;;;10.90;49.00;;;;;;5033736;28;20545;-42
2022/11/17 12:41:42;;;;;;;3.92;2.97;;;10.80;48.70;;;;;;5032267;28;20255;-42
2022/11/17 12:44:36;;;;;;;4.18;3.38;;;10.80;48.70;;;;;;5033206;28;20178;-42
2022/11/17 12:47:27;;;;;;;6.75;4.07;;;10.80;48.90;;;;;;5032998;28;20181;-42
2022/11/17 12:50:19;;;;;;;4.68;3.30;;;10.70;49.10;;;;;;5033923;28;20173;-42
2022/11/17 12:53:00;;;;;;;7.30;3.70;;;10.70;49.30;;;;;;5033376;28;20327;-42
2022/11/17 12:55:31;;;;;;;4.43;3.22;;;10.70;49.30;;;;;;5032724;28;20186;-42
2022/11/17 12:58:12;;;;;;;6.53;4.13;;;10.70;49.40;;;;;;5032681;28;20189;-42
2022/11/17 13:01:13;;;;;;;3.88;3.20;;;10.70;49.70;;;;;;5032548;28;20208;-43
2022/11/17 13:03:48;;;;;;;5.93;3.30;;;10.60;49.60;;;;;;5032636;28;20161;-42
2022/11/17 13:06:15;;;;;;;5.53;3.13;;;10.60;49.90;;;;;;5032111;28;20185;-41
2022/11/17 13:09:04;;;;;;;6.60;4.32;;;10.50;50.20;;;;;;5032323;28;20174;-42
2022/11/17 13:11:31;;;;;;;6.03;3.88;;;10.50;50.30;;;;;;5032162;28;20209;-42
2022/11/17 13:14:08;;;;;;;5.45;4.13;;;10.40;50.60;;;;;;5032201;28;20172;-42
2022/11/17 13:16:36;;;;;;;5.75;3.30;;;10.40;51.00;;;;;;5031567;28;20280;-42
2022/11/17 13:19:22;;;;;;;4.25;3.47;;;10.30;51.30;;;;;;5032104;28;20173;-42
2022/11/17 13:21:48;;;;;;;5.15;3.90;;;10.30;51.40;;;;;;5031955;28;20211;-41
2022/11/17 13:24:29;;;;;;;7.17;4.20;;;10.30;51.30;;;;;;5031885;28;20165;-42
2022/11/17 13:27:00;;;;;;;5.28;3.78;;;10.40;51.20;;;;;;5031473;28;20652;-41
2022/11/17 13:29:26;;;;;;;4.70;3.40;;;10.40;51.20;;;;;;5032204;28;20641;-41
2022/11/17 13:32:13;;;;;;;4.80;3.37;;;10.30;51.10;;;;;;5031933;28;20200;-41
2022/11/17 13:34:52;;;;;;;4.70;4.18;;;10.40;51.20;;;;;;5032279;28;20169;-41
2022/11/17 13:37:20;;;;;;;4.05;3.05;;;10.40;51.20;;;;;;5031731;28;20197;-41
2022/11/17 13:40:11;;;;;;;6.13;4.40;;;10.40;51.30;;;;;;5032294;28;20260;-39
2022/11/17 13:42:37;;;;;;;4.72;3.83;;;10.40;51.40;;;;;;5032001;28;20577;-41
2022/11/17 13:45:04;;;;;;;6.43;3.77;;;10.40;51.20;;;;;;5032141;28;20201;-41
2022/11/17 13:47:36;;;;;;;6.47;3.97;;;10.40;51.30;;;;;;5031436;28;20635;-42